Time;durP1;ratioP1;P1;durP2;ratioP2;P2;SDS_P1;SDS_P2;PMS_P1;PMS_P2;Temp;Humidity;BMP_temperature;BMP_pressure;BME280_temperature;BME280_humidity;BME280_pressure;Samples;Min_cycle;Max_cycle;Signal;HPM_P1;HPM_P2
2022/06/28 00:01:40;;;;;;;;;;;11.90;99.90;;;;;;5121470;27;19964;-65
2022/06/28 00:04:05;;;;;;;;;;;11.80;99.90;;;;;;5095817;28;19918;-65
2022/06/28 00:06:31;;;;;;;;;;;11.70;99.90;;;;;;5115953;27;19919;-66
2022/06/28 00:08:56;;;;;;;;;;;11.50;99.90;;;;;;5106312;27;20019;-66
2022/06/28 00:11:22;;;;;;;;;;;11.30;99.90;;;;;;5113078;27;19957;-66
2022/06/28 00:13:47;;;;;;;;;;;11.20;99.90;;;;;;5115501;27;19918;-65
2022/06/28 00:16:16;;;;;;;;;;;11.30;99.90;;;;;;5093247;27;19919;-65
2022/06/28 00:18:43;;;;;;;;;;;11.30;99.90;;;;;;5098031;28;19907;-65
2022/06/28 00:21:09;;;;;;;;;;;11.20;99.90;;;;;;5096152;28;20402;-65
2022/06/28 00:23:36;;;;;;;;;;;11.20;99.90;;;;;;5117444;27;19956;-65
2022/06/28 00:26:02;;;;;;;;;;;11.10;99.90;;;;;;5105622;28;19945;-65
2022/06/28 00:28:27;;;;;;;;;;;11.10;99.90;;;;;;5114476;27;19954;-66
2022/06/28 00:30:53;;;;;;;;;;;11.30;99.90;;;;;;5115282;27;19919;-66
2022/06/28 00:33:18;;;;;;;;;;;11.30;99.90;;;;;;5092509;28;19912;-66
2022/06/28 00:35:44;;;;;;;;;;;11.40;99.90;;;;;;5096777;28;19924;-65
2022/06/28 00:38:10;;;;;;;;;;;11.50;99.90;;;;;;5112580;27;19915;-65
2022/06/28 00:40:41;;;;;;;;;;;11.60;99.90;;;;;;5089382;28;19947;-65
2022/06/28 00:43:06;;;;;;;;;;;11.80;99.90;;;;;;5117515;27;19916;-65
2022/06/28 00:45:32;;;;;;;;;;;12.00;99.90;;;;;;5119336;27;19908;-65
2022/06/28 00:47:57;;;;;;;;;;;12.00;99.90;;;;;;5115517;27;19916;-65
2022/06/28 00:50:23;;;;;;;;;;;12.00;99.90;;;;;;5086689;28;20300;-65
2022/06/28 00:53:21;;;;;;;;;;;12.10;99.90;;;;;;5120836;27;19914;-65
2022/06/28 00:55:47;;;;;;;;;;;12.10;99.90;;;;;;5060197;28;19923;-65
2022/06/28 00:58:13;;;;;;;;;;;12.20;99.90;;;;;;5113559;27;20084;-65
2022/06/28 01:00:49;;;;;;;;;;;12.10;99.90;;;;;;5117107;27;19963;-65
2022/06/28 01:03:17;;;;;;;;;;;12.00;99.90;;;;;;5119090;27;20010;-65
2022/06/28 01:05:43;;;;;;;;;;;11.90;99.90;;;;;;5111788;27;19920;-65
2022/06/28 01:08:09;;;;;;;;;;;11.70;99.90;;;;;;5109731;27;19916;-65
2022/06/28 01:10:35;;;;;;;;;;;11.60;99.90;;;;;;5094360;28;19929;-67
2022/06/28 01:13:00;;;;;;;;;;;11.70;99.90;;;;;;5105921;28;19922;-66
2022/06/28 01:15:26;;;;;;;;;;;11.60;99.90;;;;;;5113705;27;21032;-65
2022/06/28 01:17:52;;;;;;;;;;;11.40;99.90;;;;;;5099368;27;19914;-65
2022/06/28 01:20:17;;;;;;;;;;;11.20;99.90;;;;;;5114733;27;20111;-66
2022/06/28 01:22:43;;;;;;;;;;;11.00;99.90;;;;;;5113896;27;19912;-66
2022/06/28 01:25:09;;;;;;;;;;;10.90;99.90;;;;;;5112070;27;20385;-66
2022/06/28 01:27:35;;;;;;;;;;;10.80;99.90;;;;;;5111896;27;20390;-66
2022/06/28 01:30:02;;;;;;;;;;;10.80;99.90;;;;;;5112507;27;19942;-66
2022/06/28 01:32:28;;;;;;;;;;;10.60;99.90;;;;;;5111241;28;19994;-66
2022/06/28 01:34:53;;;;;;;;;;;10.40;99.90;;;;;;5111773;27;20026;-66
2022/06/28 01:37:19;;;;;;;;;;;10.30;99.90;;;;;;5108187;28;19989;-66
2022/06/28 01:39:44;;;;;;;;;;;10.20;99.90;;;;;;5091567;27;19916;-66
2022/06/28 01:42:10;;;;;;;;;;;10.20;99.90;;;;;;5116459;27;19994;-66
2022/06/28 01:44:36;;;;;;;;;;;10.20;99.90;;;;;;5112430;28;19916;-66
2022/06/28 01:47:04;;;;;;;;;;;10.40;99.90;;;;;;5106583;27;19985;-66
2022/06/28 01:49:29;;;;;;;;;;;10.60;99.90;;;;;;5113605;28;19968;-66
2022/06/28 01:51:55;;;;;;;;;;;11.10;99.90;;;;;;5107676;28;20343;-66
2022/06/28 01:54:20;;;;;;;;;;;11.40;99.90;;;;;;5110905;28;20010;-66
2022/06/28 01:56:46;;;;;;;;;;;11.60;99.90;;;;;;5104206;28;20002;-66
2022/06/28 01:59:11;;;;;;;;;;;11.50;99.90;;;;;;5107109;28;19916;-66
2022/06/28 02:01:37;;;;;;;;;;;11.50;99.90;;;;;;5117704;28;20377;-66
2022/06/28 02:04:22;;;;;;;;;;;11.50;99.90;;;;;;5113525;28;20286;-66
2022/06/28 02:06:48;;;;;;;;;;;11.70;99.90;;;;;;5107479;28;20382;-66
2022/06/28 02:09:14;;;;;;;;;;;11.80;99.90;;;;;;5107973;28;19915;-66
2022/06/28 02:11:39;;;;;;;;;;;11.90;99.90;;;;;;5111456;28;19984;-66
2022/06/28 02:14:05;;;;;;;;;;;11.90;99.90;;;;;;5109656;28;20400;-66
2022/06/28 02:16:30;;;;;;;;;;;11.80;99.90;;;;;;5106337;28;20363;-66
2022/06/28 02:18:56;;;;;;;;;;;11.80;99.90;;;;;;5108630;28;19912;-66
2022/06/28 02:21:21;;;;;;;;;;;11.80;99.90;;;;;;5111543;28;20390;-66
2022/06/28 02:23:48;;;;;;;;;;;11.70;99.90;;;;;;5107043;28;20204;-66
2022/06/28 02:26:13;;;;;;;;;;;11.60;99.90;;;;;;5112378;28;19919;-66
2022/06/28 02:28:42;;;;;;;;;;;11.60;99.90;;;;;;5109289;28;19908;-66
2022/06/28 02:31:09;;;;;;;;;;;11.60;99.90;;;;;;5110638;28;20715;-66
2022/06/28 02:33:34;;;;;;;;;;;11.60;99.90;;;;;;5104806;28;19908;-66
2022/06/28 02:41:28;;;;;;;;;;;11.50;99.90;;;;;;5109858;28;20271;-66
2022/06/28 02:43:54;;;;;;;;;;;11.60;99.90;;;;;;5107998;28;19912;-66
2022/06/28 02:46:19;;;;;;;;;;;11.60;99.90;;;;;;5110258;28;19915;-66
2022/06/28 02:48:45;;;;;;;;;;;11.60;99.90;;;;;;5105436;28;20014;-66
2022/06/28 02:51:10;;;;;;;;;;;11.60;99.90;;;;;;5114831;28;19907;-66
2022/06/28 02:53:36;;;;;;;;;;;11.60;99.90;;;;;;5109316;28;19964;-66
2022/06/28 02:56:02;;;;;;;;;;;11.60;99.90;;;;;;5114948;28;19916;-66
2022/06/28 02:58:27;;;;;;;;;;;11.60;99.90;;;;;;5104948;27;20430;-66
2022/06/28 03:00:53;;;;;;;;;;;11.70;99.90;;;;;;5089714;27;19907;-66
2022/06/28 03:03:18;;;;;;;;;;;11.70;99.90;;;;;;5115571;27;19912;-66
2022/06/28 03:05:44;;;;;;;;;;;11.60;99.90;;;;;;5119810;27;19915;-66
2022/06/28 03:08:10;;;;;;;;;;;11.30;99.90;;;;;;5113160;27;20383;-66
2022/06/28 03:10:35;;;;;;;;;;;11.00;99.90;;;;;;5098260;27;20014;-66
2022/06/28 03:13:01;;;;;;;;;;;10.90;99.90;;;;;;5118247;27;19920;-66
2022/06/28 03:15:26;;;;;;;;;;;11.00;99.90;;;;;;5111086;27;20138;-66
2022/06/28 03:17:52;;;;;;;;;;;11.20;99.90;;;;;;5108461;27;19912;-66
2022/06/28 03:20:18;;;;;;;;;;;11.30;99.90;;;;;;5115158;27;19992;-66
2022/06/28 03:22:43;;;;;;;;;;;11.40;99.90;;;;;;5112999;27;19916;-66
2022/06/28 03:25:09;;;;;;;;;;;11.40;99.90;;;;;;5094241;28;19909;-66
2022/06/28 03:27:34;;;;;;;;;;;11.30;99.90;;;;;;5108906;28;19922;-66
2022/06/28 03:30:01;;;;;;;;;;;11.40;99.90;;;;;;5117563;27;20015;-66
2022/06/28 03:32:27;;;;;;;;;;;11.50;99.90;;;;;;5120717;27;19999;-66
2022/06/28 03:34:52;;;;;;;;;;;11.50;99.90;;;;;;5112498;27;20014;-66
2022/06/28 03:37:18;;;;;;;;;;;11.60;99.90;;;;;;5119031;27;19927;-66
2022/06/28 03:39:43;;;;;;;;;;;11.70;99.90;;;;;;5108624;27;19914;-66
2022/06/28 03:42:09;;;;;;;;;;;11.70;99.90;;;;;;5115936;27;19912;-66
2022/06/28 03:44:34;;;;;;;;;;;11.80;99.90;;;;;;5119829;27;19994;-66
2022/06/28 03:47:00;;;;;;;;;;;11.90;99.90;;;;;;5111271;27;19942;-66
2022/06/28 03:49:25;;;;;;;;;;;12.00;99.90;;;;;;5111679;27;19919;-66
2022/06/28 03:51:51;;;;;;;;;;;11.90;99.90;;;;;;5117119;27;19908;-66
2022/06/28 03:54:16;;;;;;;;;;;12.10;99.90;;;;;;5118761;27;19980;-66
2022/06/28 03:56:42;;;;;;;;;;;12.20;99.90;;;;;;5119867;27;19919;-66
2022/06/28 03:59:07;;;;;;;;;;;12.20;99.90;;;;;;5093952;27;19950;-66
2022/06/28 04:01:33;;;;;;;;;;;12.20;99.90;;;;;;5114987;27;19907;-66
2022/06/28 04:03:58;;;;;;;;;;;12.30;99.90;;;;;;5092122;27;20371;-66
2022/06/28 04:06:24;;;;;;;;;;;12.30;99.90;;;;;;5115922;27;19928;-65
2022/06/28 04:08:49;;;;;;;;;;;12.30;99.90;;;;;;5102102;27;19916;-65
2022/06/28 04:11:15;;;;;;;;;;;12.40;99.90;;;;;;5094792;28;19939;-65
2022/06/28 04:13:42;;;;;;;;;;;12.40;99.90;;;;;;5102380;27;20353;-65
2022/06/28 04:16:07;;;;;;;;;;;12.40;99.90;;;;;;5091054;28;19971;-65
2022/06/28 04:18:33;;;;;;;;;;;12.50;99.90;;;;;;5112262;27;20553;-65
2022/06/28 04:20:59;;;;;;;;;;;12.50;99.90;;;;;;5110015;27;19984;-65
2022/06/28 04:23:24;;;;;;;;;;;12.50;99.90;;;;;;5109302;28;20014;-65
2022/06/28 04:25:50;;;;;;;;;;;12.60;99.90;;;;;;5108139;28;20397;-65
2022/06/28 04:28:16;;;;;;;;;;;12.60;99.90;;;;;;5099661;27;19922;-66
2022/06/28 04:30:41;;;;;;;;;;;12.70;99.90;;;;;;5107899;27;20375;-66
2022/06/28 04:33:07;;;;;;;;;;;12.80;99.90;;;;;;5108211;27;19916;-65
2022/06/28 04:35:32;;;;;;;;;;;12.80;99.90;;;;;;5106743;28;21338;-65
2022/06/28 04:37:58;;;;;;;;;;;12.80;99.90;;;;;;5105685;28;20395;-65
2022/06/28 04:40:23;;;;;;;;;;;12.90;99.90;;;;;;5110120;27;19951;-65
2022/06/28 04:42:49;;;;;;;;;;;13.00;99.90;;;;;;5107848;28;20223;-65
2022/06/28 04:45:14;;;;;;;;;;;13.10;99.90;;;;;;5106870;27;19912;-65
2022/06/28 04:47:42;;;;;;;;;;;13.10;99.90;;;;;;5115113;27;19912;-65
2022/06/28 04:50:08;;;;;;;;;;;13.20;99.90;;;;;;5110603;27;19941;-65
2022/06/28 04:52:34;;;;;;;;;;;13.40;99.90;;;;;;5093169;27;20297;-65
2022/06/28 04:54:59;;;;;;;;;;;13.40;99.90;;;;;;5093933;28;20362;-65
2022/06/28 04:57:25;;;;;;;;;;;13.40;99.90;;;;;;5110107;27;19947;-66
2022/06/28 04:59:50;;;;;;;;;;;13.50;99.90;;;;;;5109729;27;20078;-66
2022/06/28 05:02:16;;;;;;;;;;;13.50;99.90;;;;;;5107614;27;19919;-66
2022/06/28 05:04:41;;;;;;;;;;;13.60;99.90;;;;;;5111474;27;19938;-66
2022/06/28 05:07:07;;;;;;;;;;;13.60;99.90;;;;;;5093235;27;19920;-66
2022/06/28 05:09:32;;;;;;;;;;;13.60;99.90;;;;;;5100266;28;20020;-66
2022/06/28 05:11:58;;;;;;;;;;;13.60;99.90;;;;;;5108384;27;19998;-66
2022/06/28 05:14:23;;;;;;;;;;;13.80;99.90;;;;;;5098532;28;19995;-66
2022/06/28 05:16:49;;;;;;;;;;;13.90;99.90;;;;;;5107966;27;19915;-66
2022/06/28 05:19:14;;;;;;;;;;;14.00;99.90;;;;;;5110578;27;20413;-66
2022/06/28 05:21:40;;;;;;;;;;;14.10;99.90;;;;;;5115354;27;19916;-66
2022/06/28 05:24:05;;;;;;;;;;;14.20;99.90;;;;;;5094166;28;19912;-66
2022/06/28 05:26:31;;;;;;;;;;;14.20;99.90;;;;;;5117951;27;19956;-66
2022/06/28 05:28:57;;;;;;;;;;;14.30;99.90;;;;;;5093751;28;19915;-66
2022/06/28 05:31:22;;;;;;;;;;;14.40;99.90;;;;;;5114987;27;19929;-66
2022/06/28 05:33:48;;;;;;;;;;;14.60;99.90;;;;;;5109785;27;19912;-66
2022/06/28 05:36:14;;;;;;;;;;;14.60;99.90;;;;;;5099583;27;19915;-66
2022/06/28 05:38:39;;;;;;;;;;;14.70;99.90;;;;;;5090802;28;19912;-66
2022/06/28 05:41:05;;;;;;;;;;;14.80;99.90;;;;;;5107288;28;19968;-66
2022/06/28 05:43:30;;;;;;;;;;;14.90;99.90;;;;;;5106435;27;19963;-66
2022/06/28 05:45:56;;;;;;;;;;;15.00;99.90;;;;;;5109087;28;20594;-66
2022/06/28 05:48:21;;;;;;;;;;;15.00;99.90;;;;;;5108216;28;19920;-66
2022/06/28 05:50:47;;;;;;;;;;;15.10;99.90;;;;;;5116518;28;20007;-66
2022/06/28 05:53:13;;;;;;;;;;;15.20;99.90;;;;;;5107861;28;19912;-66
2022/06/28 05:55:39;;;;;;;;;;;15.30;99.90;;;;;;5111219;28;20108;-66
2022/06/28 05:58:04;;;;;;;;;;;15.30;99.90;;;;;;5108685;28;20282;-66
2022/06/28 06:00:30;;;;;;;;;;;15.40;99.90;;;;;;5110485;28;20282;-66
2022/06/28 06:02:55;;;;;;;;;;;15.50;99.90;;;;;;5120033;28;19907;-66
2022/06/28 06:05:21;;;;;;;;;;;15.50;99.90;;;;;;5102433;28;19965;-66
2022/06/28 06:07:46;;;;;;;;;;;15.50;99.90;;;;;;5109258;28;20428;-66
2022/06/28 06:10:12;;;;;;;;;;;15.60;99.90;;;;;;5107870;28;20452;-66
2022/06/28 06:12:37;;;;;;;;;;;15.70;99.90;;;;;;5104290;28;19916;-66
2022/06/28 06:15:03;;;;;;;;;;;15.80;99.90;;;;;;5103777;28;19912;-66
2022/06/28 06:17:29;;;;;;;;;;;15.80;99.90;;;;;;5111077;28;19916;-66
2022/06/28 06:19:55;;;;;;;;;;;15.90;99.90;;;;;;5111393;28;19912;-66
2022/06/28 06:22:20;;;;;;;;;;;16.00;99.90;;;;;;5112224;28;19916;-66
2022/06/28 06:24:46;;;;;;;;;;;16.10;99.90;;;;;;5112888;28;20421;-66
2022/06/28 06:27:13;;;;;;;;;;;16.10;99.90;;;;;;5088573;28;20290;-66
2022/06/28 06:29:39;;;;;;;;;;;16.10;99.90;;;;;;5105131;28;19974;-66
2022/06/28 06:32:04;;;;;;;;;;;16.20;99.90;;;;;;5109896;28;20076;-66
2022/06/28 06:34:30;;;;;;;;;;;16.20;99.90;;;;;;5116371;27;19941;-66
2022/06/28 06:36:55;;;;;;;;;;;16.20;99.90;;;;;;5112249;27;19992;-66
2022/06/28 06:39:21;;;;;;;;;;;16.20;99.90;;;;;;5114815;27;19930;-66
2022/06/28 06:41:47;;;;;;;;;;;16.20;99.90;;;;;;5099245;28;19923;-66
2022/06/28 06:44:12;;;;;;;;;;;16.30;99.90;;;;;;5112993;27;19912;-66
2022/06/28 06:46:38;;;;;;;;;;;16.30;99.90;;;;;;5114730;27;19919;-66
2022/06/28 06:49:04;;;;;;;;;;;16.40;99.90;;;;;;5114416;27;19971;-66
2022/06/28 06:51:32;;;;;;;;;;;16.50;99.90;;;;;;5113690;27;19975;-66
2022/06/28 06:53:58;;;;;;;;;;;16.50;99.90;;;;;;5114168;27;19923;-66
2022/06/28 06:56:24;;;;;;;;;;;16.70;99.90;;;;;;5111591;27;19919;-66
2022/06/28 06:58:50;;;;;;;;;;;16.80;99.90;;;;;;5093999;27;20306;-66
2022/06/28 07:01:15;;;;;;;;;;;16.70;99.90;;;;;;5096820;28;19919;-66
2022/06/28 07:03:44;;;;;;;;;;;16.80;99.90;;;;;;5117920;27;19923;-66
2022/06/28 07:06:13;;;;;;;;;;;17.00;99.90;;;;;;5114971;27;19912;-66
2022/06/28 07:08:39;;;;;;;;;;;17.20;99.90;;;;;;5094160;27;19912;-66
2022/06/28 07:11:05;;;;;;;;;;;17.20;99.90;;;;;;5123973;27;19915;-66
2022/06/28 07:13:30;;;;;;;;;;;17.30;99.90;;;;;;5108201;27;19911;-66
2022/06/28 07:15:57;;;;;;;;;;;17.20;99.90;;;;;;5119911;27;19916;-66
2022/06/28 07:18:23;;;;;;;;;;;17.20;99.90;;;;;;5095563;27;19911;-66
2022/06/28 07:20:52;;;;;;;;;;;17.30;99.90;;;;;;5115742;27;19965;-66
2022/06/28 07:23:18;;;;;;;;;;;17.40;99.90;;;;;;5110600;27;19923;-66
2022/06/28 07:25:43;;;;;;;;;;;17.50;99.90;;;;;;5121661;27;19908;-66
2022/06/28 07:28:10;;;;;;;;;;;17.40;99.90;;;;;;5122634;27;19907;-66
2022/06/28 07:30:36;;;;;;;;;;;17.40;99.90;;;;;;5124833;27;19914;-66
2022/06/28 07:33:02;;;;;;;;;;;17.40;99.90;;;;;;5124441;27;20314;-66
2022/06/28 07:35:28;;;;;;;;;;;17.60;99.90;;;;;;5117428;27;19927;-66
2022/06/28 07:37:54;;;;;;;;;;;17.70;99.90;;;;;;5114442;27;20393;-65
2022/06/28 07:40:19;;;;;;;;;;;17.70;99.90;;;;;;5121681;27;20433;-65
2022/06/28 07:42:45;;;;;;;;;;;17.90;99.90;;;;;;5126317;27;20560;-65
2022/06/28 07:45:10;;;;;;;;;;;18.00;99.90;;;;;;5121384;27;19911;-65
2022/06/28 07:47:36;;;;;;;;;;;18.00;99.90;;;;;;5117416;27;19912;-65
2022/06/28 07:52:45;;;;;;;;;;;18.00;99.90;;;;;;5108900;28;19919;-65
2022/06/28 07:55:11;;;;;;;;;;;18.20;99.90;;;;;;5111873;27;20282;-65
2022/06/28 07:57:37;;;;;;;;;;;18.60;99.90;;;;;;5097499;28;19930;-65
2022/06/28 08:00:06;;;;;;;;;;;18.50;99.90;;;;;;5112335;27;19908;-65
2022/06/28 08:02:31;;;;;;;;;;;18.50;99.90;;;;;;5123163;27;19918;-65
2022/06/28 08:04:57;;;;;;;;;;;18.50;99.90;;;;;;5107609;27;19919;-65
2022/06/28 08:07:22;;;;;;;;;;;18.60;99.90;;;;;;5107524;27;20367;-65
2022/06/28 08:09:48;;;;;;;;;;;18.80;99.90;;;;;;5113185;27;20382;-65
2022/06/28 08:12:14;;;;;;;;;;;19.10;99.90;;;;;;5116500;27;19912;-65
2022/06/28 08:14:39;;;;;;;;;;;19.50;99.90;;;;;;5117522;27;20023;-65
2022/06/28 08:17:05;;;;;;;;;;;20.40;99.90;;;;;;5117751;27;19919;-65
2022/06/28 08:19:31;;;;;;;;;;;20.40;99.90;;;;;;5115423;27;19911;-65
2022/06/28 08:21:56;;;;;;;;;;;20.30;99.90;;;;;;5109107;27;19919;-66
2022/06/28 08:24:22;;;;;;;;;;;20.80;99.90;;;;;;5111994;27;20022;-65
2022/06/28 08:26:47;;;;;;;;;;;21.20;99.90;;;;;;5113129;27;19986;-66
2022/06/28 08:29:14;;;;;;;;;;;21.60;99.90;;;;;;5111740;27;19996;-66
2022/06/28 08:31:40;;;;;;;;;;;22.30;99.90;;;;;;5109248;28;19912;-66
2022/06/28 08:34:06;;;;;;;;;;;23.10;99.90;;;;;;5112746;27;19973;-66
2022/06/28 08:36:32;;;;;;;;;;;23.50;99.40;;;;;;5107211;27;19935;-66
2022/06/28 08:38:57;;;;;;;;;;;24.20;96.90;;;;;;5104561;28;20306;-66
2022/06/28 08:41:30;;;;;;;;;;;24.30;95.60;;;;;;5114795;27;19959;-66
2022/06/28 08:43:56;;;;;;;;;;;24.30;95.90;;;;;;5094175;28;19912;-66
2022/06/28 08:46:21;;;;;;;;;;;24.70;93.20;;;;;;5109762;27;20282;-66
2022/06/28 08:48:55;;;;;;;;;;;24.90;93.50;;;;;;5113947;27;20410;-66
2022/06/28 08:51:22;;;;;;;;;;;24.40;92.90;;;;;;5097143;28;19912;-66
2022/06/28 08:53:48;;;;;;;;;;;24.60;92.40;;;;;;5112563;27;19962;-66
2022/06/28 08:56:15;;;;;;;;;;;24.30;94.20;;;;;;5091755;28;19951;-65
2022/06/28 08:58:42;;;;;;;;;;;24.30;94.80;;;;;;5122997;27;19925;-66
2022/06/28 09:01:08;;;;;;;;;;;24.50;92.90;;;;;;5115245;27;19927;-66
2022/06/28 09:03:34;;;;;;;;;;;24.50;92.70;;;;;;5119205;27;20259;-66
2022/06/28 09:06:00;;;;;;;;;;;24.70;91.40;;;;;;5110638;27;19920;-66
2022/06/28 09:08:26;;;;;;;;;;;25.20;91.30;;;;;;5108723;27;19916;-66
2022/06/28 09:10:51;;;;;;;;;;;25.60;88.20;;;;;;5121857;27;19907;-66
2022/06/28 09:13:18;;;;;;;;;;;25.50;85.80;;;;;;5112998;27;19955;-66
2022/06/28 09:15:51;;;;;;;;;;;25.10;85.40;;;;;;5110751;27;20427;-65
2022/06/28 09:18:18;;;;;;;;;;;24.70;86.70;;;;;;5101138;28;19912;-66
2022/06/28 09:20:44;;;;;;;;;;;25.40;88.10;;;;;;5097903;28;19930;-66
2022/06/28 09:23:32;;;;;;;;;;;25.10;89.60;;;;;;5117159;27;19916;-65
2022/06/28 09:26:02;;;;;;;;;;;24.70;87.20;;;;;;5115753;27;20329;-65
2022/06/28 09:28:28;;;;;;;;;;;24.20;89.40;;;;;;5109382;27;19973;-65
2022/06/28 09:31:16;;;;;;;;;;;24.60;90.90;;;;;;5109607;27;19912;-65
2022/06/28 09:33:43;;;;;;;;;;;25.20;90.10;;;;;;5120182;27;19923;-66
2022/06/28 09:36:10;;;;;;;;;;;25.50;86.40;;;;;;5111570;27;19949;-66
2022/06/28 09:38:35;;;;;;;;;;;26.10;86.50;;;;;;5115173;27;19912;-67
2022/06/28 09:41:01;;;;;;;;;;;26.80;84.50;;;;;;5112057;27;19923;-65
2022/06/28 09:43:31;;;;;;;;;;;26.70;79.60;;;;;;5106271;27;19949;-65
2022/06/28 09:45:57;;;;;;;;;;;27.20;78.90;;;;;;5113062;28;20131;-65
2022/06/28 09:48:22;;;;;;;;;;;27.10;78.80;;;;;;5108181;28;20011;-65
2022/06/28 09:50:48;;;;;;;;;;;27.20;77.20;;;;;;5112367;28;20295;-64
2022/06/28 09:53:15;;;;;;;;;;;27.40;78.30;;;;;;5118406;28;19908;-65
2022/06/28 09:55:41;;;;;;;;;;;26.80;76.90;;;;;;5122559;28;19919;-64
2022/06/28 09:58:07;;;;;;;;;;;26.80;77.10;;;;;;5095129;28;19908;-64
2022/06/28 10:00:34;;;;;;;;;;;25.90;78.00;;;;;;5121012;28;19938;-64
2022/06/28 10:03:00;;;;;;;;;;;26.00;78.60;;;;;;5088059;28;19929;-64
2022/06/28 10:05:26;;;;;;;;;;;26.70;77.90;;;;;;5122200;28;19911;-65
2022/06/28 10:07:51;;;;;;;;;;;26.90;76.50;;;;;;5120336;27;19942;-64
2022/06/28 10:10:17;;;;;;;;;;;26.90;75.90;;;;;;5119366;27;20414;-65
2022/06/28 10:15:30;;;;;;;;;;;27.40;75.10;;;;;;5115226;27;20011;-65
2022/06/28 10:17:56;;;;;;;;;;;27.60;75.70;;;;;;5102036;28;19919;-65
2022/06/28 10:20:26;;;;;;;;;;;27.70;75.60;;;;;;5123766;27;19998;-64
2022/06/28 10:22:52;;;;;;;;;;;27.40;74.40;;;;;;5124434;27;20263;-64
2022/06/28 10:25:23;;;;;;;;;;;27.30;73.30;;;;;;5124738;27;19911;-65
2022/06/28 10:27:52;;;;;;;;;;;27.80;72.90;;;;;;5103955;27;19907;-65
2022/06/28 10:30:19;;;;;;;;;;;28.40;72.90;;;;;;5098125;28;19918;-65
2022/06/28 10:32:44;;;;;;;;;;;29.40;71.70;;;;;;5120131;27;19922;-65
2022/06/28 10:35:10;;;;;;;;;;;29.00;68.40;;;;;;5124208;27;19924;-65
2022/06/28 10:37:55;;;;;;;;;;;29.00;68.60;;;;;;5122633;27;19919;-65
2022/06/28 10:40:24;;;;;;;;;;;30.10;68.10;;;;;;5118347;27;19907;-65
2022/06/28 10:42:50;;;;;;;;;;;29.60;66.90;;;;;;5125753;27;19911;-64
2022/06/28 10:45:16;;;;;;;;;;;30.10;66.30;;;;;;5122343;27;19950;-65
2022/06/28 10:50:55;;;;;;;;;;;29.40;67.10;;;;;;5108178;28;19919;-65
2022/06/28 10:53:20;;;;;;;;;;;31.10;62.50;;;;;;5118977;27;20003;-65
2022/06/28 10:56:06;;;;;;;;;;;31.40;63.40;;;;;;5119741;27;20002;-65
2022/06/28 10:58:31;;;;;;;;;;;31.60;60.80;;;;;;5099556;27;19908;-65
2022/06/28 11:00:57;;;;;;;;;;;29.10;62.20;;;;;;5113192;27;20044;-64
2022/06/28 11:03:22;;;;;;;;;;;28.30;63.20;;;;;;5122126;27;20323;-65
2022/06/28 11:05:55;;;;;;;;;;;29.20;63.60;;;;;;5120368;27;19911;-65
2022/06/28 11:08:41;;;;;;;;;;;29.80;64.30;;;;;;5111144;27;19911;-65
2022/06/28 11:11:08;;;;;;;;;;;29.20;62.50;;;;;;5120573;27;20244;-65
2022/06/28 11:13:33;;;;;;;;;;;27.40;64.00;;;;;;5123009;27;19915;-65
2022/06/28 11:15:59;;;;;;;;;;;27.10;67.10;;;;;;5123026;27;21051;-65
2022/06/28 11:18:25;;;;;;;;;;;27.60;67.70;;;;;;5112957;27;20387;-65
2022/06/28 11:20:51;;;;;;;;;;;26.70;66.70;;;;;;5114637;27;20014;-65
2022/06/28 11:23:26;;;;;;;;;;;28.00;66.40;;;;;;5101062;27;19915;-65
2022/06/28 11:28:51;;;;;;;;;;;30.40;61.20;;;;;;5105023;27;20395;-65
2022/06/28 11:31:17;;;;;;;;;;;31.60;64.70;;;;;;5112796;27;20283;-65
2022/06/28 11:33:42;;;;;;;;;;;32.60;60.50;;;;;;5122040;27;19915;-65
2022/06/28 11:36:08;;;;;;;;;;;33.10;57.50;;;;;;5090682;28;19920;-65
2022/06/28 11:38:33;;;;;;;;;;;34.10;57.50;;;;;;5118228;27;19907;-65
2022/06/28 11:40:59;;;;;;;;;;;34.10;56.60;;;;;;5093686;27;19908;-65
2022/06/28 11:43:27;;;;;;;;;;;33.50;56.10;;;;;;5115580;27;19956;-65
2022/06/28 11:45:53;;;;;;;;;;;33.80;56.10;;;;;;5111446;27;19912;-65
2022/06/28 11:48:21;;;;;;;;;;;33.70;55.20;;;;;;5117613;27;19915;-65
2022/06/28 11:50:56;;;;;;;;;;;33.90;55.80;;;;;;5118355;27;19907;-65
2022/06/28 11:53:23;;;;;;;;;;;34.00;55.10;;;;;;5101006;27;19912;-65
2022/06/28 11:55:50;;;;;;;;;;;32.60;55.20;;;;;;5109949;27;20363;-65
2022/06/28 11:58:17;;;;;;;;;;;32.20;56.20;;;;;;5120074;27;19908;-65
2022/06/28 12:01:01;;;;;;;;;;;32.10;57.50;;;;;;5118465;27;19911;-65
2022/06/28 12:03:27;;;;;;;;;;;30.80;58.30;;;;;;5108503;27;19920;-65
2022/06/28 12:05:57;;;;;;;;;;;29.30;59.40;;;;;;5116900;27;19918;-64
2022/06/28 12:08:40;;;;;;;;;;;27.90;61.10;;;;;;5111631;27;19999;-65
2022/06/28 12:11:05;;;;;;;;;;;27.30;62.50;;;;;;5117362;27;19912;-65
2022/06/28 12:13:31;;;;;;;;;;;29.70;63.00;;;;;;5108199;27;19961;-65
2022/06/28 12:15:58;;;;;;;;;;;30.80;60.50;;;;;;5116346;27;19950;-65
2022/06/28 12:18:23;;;;;;;;;;;31.50;57.30;;;;;;5110359;27;19908;-65
2022/06/28 12:20:54;;;;;;;;;;;33.20;56.00;;;;;;5120863;27;19941;-65
2022/06/28 12:23:19;;;;;;;;;;;33.60;54.70;;;;;;5118677;27;19911;-65
2022/06/28 12:25:45;;;;;;;;;;;32.50;54.90;;;;;;5114191;27;19920;-65
2022/06/28 12:28:10;;;;;;;;;;;31.40;56.70;;;;;;5121358;27;19956;-65
2022/06/28 12:30:36;;;;;;;;;;;32.10;56.80;;;;;;5117930;27;19908;-65
2022/06/28 12:33:01;;;;;;;;;;;33.20;54.50;;;;;;5117689;27;19919;-65
2022/06/28 12:35:27;;;;;;;;;;;34.00;54.40;;;;;;5110893;27;19920;-65
2022/06/28 12:37:54;;;;;;;;;;;34.50;54.40;;;;;;5119843;27;19912;-65
2022/06/28 12:40:21;;;;;;;;;;;34.40;53.60;;;;;;5116236;27;19907;-65
2022/06/28 12:42:47;;;;;;;;;;;33.30;53.40;;;;;;5116890;27;19907;-65
2022/06/28 12:45:12;;;;;;;;;;;31.60;54.30;;;;;;5112390;27;20320;-65
2022/06/28 12:47:40;;;;;;;;;;;31.80;58.10;;;;;;5098116;28;19912;-65
2022/06/28 12:50:07;;;;;;;;;;;32.60;56.20;;;;;;5114778;27;20045;-65
2022/06/28 12:52:34;;;;;;;;;;;31.80;55.50;;;;;;5120364;27;20047;-65
2022/06/28 12:55:00;;;;;;;;;;;31.20;55.50;;;;;;5118368;27;19907;-65
2022/06/28 12:57:26;;;;;;;;;;;31.90;56.40;;;;;;5121519;27;19911;-65
2022/06/28 12:59:52;;;;;;;;;;;32.10;55.00;;;;;;5117767;27;20423;-65
2022/06/28 13:02:17;;;;;;;;;;;30.90;55.50;;;;;;5115957;27;19915;-65
2022/06/28 13:04:47;;;;;;;;;;;30.40;58.40;;;;;;5110573;27;20393;-65
2022/06/28 13:07:13;;;;;;;;;;;29.50;57.10;;;;;;5110833;27;19919;-64
2022/06/28 13:09:39;;;;;;;;;;;28.40;58.10;;;;;;5093074;27;20333;-64
2022/06/28 13:12:04;;;;;;;;;;;29.40;60.50;;;;;;5117570;27;19915;-65
2022/06/28 13:14:30;;;;;;;;;;;31.70;58.50;;;;;;5114539;27;19908;-65
2022/06/28 13:16:55;;;;;;;;;;;33.60;54.60;;;;;;5094939;27;20115;-65
2022/06/28 13:19:21;;;;;;;;;;;33.70;54.60;;;;;;5093923;27;20445;-65
2022/06/28 13:21:47;;;;;;;;;;;34.00;54.60;;;;;;5116860;27;19947;-65
2022/06/28 13:24:14;;;;;;;;;;;34.80;52.70;;;;;;5120798;27;20341;-65
2022/06/28 13:26:41;;;;;;;;;;;35.40;52.10;;;;;;5114303;27;20002;-65
2022/06/28 13:29:07;;;;;;;;;;;35.00;51.20;;;;;;5113275;27;19912;-65
2022/06/28 13:31:33;;;;;;;;;;;35.60;51.40;;;;;;5118400;27;19957;-65
2022/06/28 13:33:58;;;;;;;;;;;35.60;50.80;;;;;;5113763;27;19920;-65
2022/06/28 13:36:24;;;;;;;;;;;34.00;50.90;;;;;;5092894;28;19927;-65
2022/06/28 13:38:49;;;;;;;;;;;34.70;51.60;;;;;;5115552;27;19911;-65
2022/06/28 13:41:15;;;;;;;;;;;35.00;51.40;;;;;;5115938;27;19952;-65
2022/06/28 13:43:41;;;;;;;;;;;34.30;51.10;;;;;;5114018;27;19961;-64
2022/06/28 13:46:08;;;;;;;;;;;35.20;51.30;;;;;;5112369;27;19907;-65
2022/06/28 13:48:34;;;;;;;;;;;36.20;51.10;;;;;;5117262;27;19931;-65
2022/06/28 13:51:00;;;;;;;;;;;37.00;50.40;;;;;;5112065;28;19915;-65
2022/06/28 13:53:27;;;;;;;;;;;36.30;49.70;;;;;;5118719;28;20342;-65
2022/06/28 13:55:52;;;;;;;;;;;36.00;49.30;;;;;;5117889;28;19911;-65
2022/06/28 13:58:18;;;;;;;;;;;35.80;48.90;;;;;;5114007;28;19911;-64
2022/06/28 14:00:44;;;;;;;;;;;34.00;51.20;;;;;;5117704;28;19908;-64
2022/06/28 14:03:12;;;;;;;;;;;35.70;50.70;;;;;;5114797;28;19908;-65
2022/06/28 14:05:38;;;;;;;;;;;35.70;50.20;;;;;;5112074;28;19984;-65
2022/06/28 14:08:05;;;;;;;;;;;35.30;49.80;;;;;;5116316;28;19912;-65
2022/06/28 14:10:30;;;;;;;;;;;35.20;50.30;;;;;;5111144;28;19907;-65
2022/06/28 14:12:56;;;;;;;;;;;36.00;50.50;;;;;;5118400;28;19920;-65
2022/06/28 14:15:22;;;;;;;;;;;36.10;50.60;;;;;;5119773;28;19912;-65
2022/06/28 14:17:47;;;;;;;;;;;37.10;49.40;;;;;;5117743;28;19916;-65
2022/06/28 14:20:13;;;;;;;;;;;37.80;48.50;;;;;;5115963;28;19912;-65
2022/06/28 14:22:38;;;;;;;;;;;37.10;49.00;;;;;;5113394;28;19980;-65
2022/06/28 14:25:04;;;;;;;;;;;34.10;51.60;;;;;;5119734;28;19907;-65
2022/06/28 14:27:30;;;;;;;;;;;34.90;51.80;;;;;;5116856;28;19912;-65
2022/06/28 14:29:55;;;;;;;;;;;33.70;50.40;;;;;;5118156;28;19908;-65